sensor_id;sensor_type;location;lat;lon;timestamp;pressure;altitude;pressure_sealevel;temperature;humidity
65359;BME280;52491;45.900;6.346;2023-07-31T00:02:14;94154.72;;;27.83;36.58
65359;BME280;52491;45.900;6.346;2023-07-31T00:04:40;94144.00;;;27.83;36.49
65359;BME280;52491;45.900;6.346;2023-07-31T00:07:05;94141.31;;;27.83;36.10
65359;BME280;52491;45.900;6.346;2023-07-31T00:09:32;94139.72;;;27.82;36.37
65359;BME280;52491;45.900;6.346;2023-07-31T00:11:58;94142.41;;;27.82;36.37
65359;BME280;52491;45.900;6.346;2023-07-31T00:14:24;94128.22;;;27.82;36.38
65359;BME280;52491;45.900;6.346;2023-07-31T00:16:50;94138.94;;;27.82;36.47
65359;BME280;52491;45.900;6.346;2023-07-31T00:19:15;94130.09;;;27.81;36.21
65359;BME280;52491;45.900;6.346;2023-07-31T00:21:41;94134.38;;;27.82;36.39
65359;BME280;52491;45.900;6.346;2023-07-31T00:24:06;94130.91;;;27.82;36.33
65359;BME280;52491;45.900;6.346;2023-07-31T00:26:32;94114.81;;;27.82;36.32
65359;BME280;52491;45.900;6.346;2023-07-31T00:28:57;94122.88;;;27.82;36.14
65359;BME280;52491;45.900;6.346;2023-07-31T00:31:23;94123.94;;;27.81;36.20
65359;BME280;52491;45.900;6.346;2023-07-31T00:33:48;94127.44;;;27.81;36.20
65359;BME280;52491;45.900;6.346;2023-07-31T00:36:14;94113.22;;;27.81;36.27
65359;BME280;52491;45.900;6.346;2023-07-31T00:38:40;94109.72;;;27.80;36.23
65359;BME280;52491;45.900;6.346;2023-07-31T00:41:05;94116.19;;;27.79;36.29
65359;BME280;52491;45.900;6.346;2023-07-31T00:43:31;94107.31;;;27.79;36.24
65359;BME280;52491;45.900;6.346;2023-07-31T00:45:56;94099.28;;;27.79;36.06
65359;BME280;52491;45.900;6.346;2023-07-31T00:48:23;94102.22;;;27.82;36.06
65359;BME280;52491;45.900;6.346;2023-07-31T00:50:49;94091.22;;;27.84;35.90
65359;BME280;52491;45.900;6.346;2023-07-31T00:53:15;94096.56;;;27.84;35.95
65359;BME280;52491;45.900;6.346;2023-07-31T00:55:41;94095.28;;;27.81;36.04
65359;BME280;52491;45.900;6.346;2023-07-31T00:58:06;94093.66;;;27.80;35.87
65359;BME280;52491;45.900;6.346;2023-07-31T01:00:32;94101.69;;;27.80;35.90
65359;BME280;52491;45.900;6.346;2023-07-31T01:02:57;94107.06;;;27.80;36.16
65359;BME280;52491;45.900;6.346;2023-07-31T01:05:49;94104.91;;;27.82;35.73
65359;BME280;52491;45.900;6.346;2023-07-31T01:08:58;94100.91;;;27.80;35.98
65359;BME280;52491;45.900;6.346;2023-07-31T01:11:17;94103.03;;;27.78;35.94
65359;BME280;52491;45.900;6.346;2023-07-31T01:13:45;94092.31;;;27.78;35.81
65359;BME280;52491;45.900;6.346;2023-07-31T01:16:11;94086.94;;;27.78;35.81
65359;BME280;52491;45.900;6.346;2023-07-31T01:18:37;94086.72;;;27.79;35.34
65359;BME280;52491;45.900;6.346;2023-07-31T01:21:22;94086.41;;;27.81;35.98
65359;BME280;52491;45.900;6.346;2023-07-31T01:26:45;94087.75;;;27.78;35.69
65359;BME280;52491;45.900;6.346;2023-07-31T01:31:53;94073.84;;;27.76;35.75
65359;BME280;52491;45.900;6.346;2023-07-31T01:34:21;94080.25;;;27.75;35.75
65359;BME280;52491;45.900;6.346;2023-07-31T01:36:47;94077.59;;;27.75;35.71
65359;BME280;52491;45.900;6.346;2023-07-31T01:39:13;94084.56;;;27.76;35.65
65359;BME280;52491;45.900;6.346;2023-07-31T01:41:40;94077.59;;;27.75;35.73
65359;BME280;52491;45.900;6.346;2023-07-31T01:44:06;94077.59;;;27.75;35.53
65359;BME280;52491;45.900;6.346;2023-07-31T01:46:32;94087.50;;;27.75;35.65
65359;BME280;52491;45.900;6.346;2023-07-31T01:48:57;94076.78;;;27.75;35.65
65359;BME280;52491;45.900;6.346;2023-07-31T01:51:23;94076.78;;;27.75;35.24
65359;BME280;52491;45.900;6.346;2023-07-31T01:53:48;94072.53;;;27.74;35.48
65359;BME280;52491;45.900;6.346;2023-07-31T01:56:14;94069.84;;;27.74;35.62
65359;BME280;52491;45.900;6.346;2023-07-31T01:58:39;94073.31;;;27.74;35.57
65359;BME280;52491;45.900;6.346;2023-07-31T02:01:05;94073.31;;;27.74;35.53
65359;BME280;52491;45.900;6.346;2023-07-31T02:03:30;94072.53;;;27.74;35.60
65359;BME280;52491;45.900;6.346;2023-07-31T02:05:56;94070.09;;;27.72;35.52
65359;BME280;52491;45.900;6.346;2023-07-31T02:08:22;94077.34;;;27.72;35.61
65359;BME280;52491;45.900;6.346;2023-07-31T02:10:47;94074.41;;;27.73;35.48
65359;BME280;52491;45.900;6.346;2023-07-31T02:13:13;94062.06;;;27.72;35.52
65359;BME280;52491;45.900;6.346;2023-07-31T02:15:38;94060.47;;;27.71;35.26
65359;BME280;52491;45.900;6.346;2023-07-31T02:18:04;94054.34;;;27.71;35.34
65359;BME280;52491;45.900;6.346;2023-07-31T02:20:30;94053.53;;;27.70;35.42
65359;BME280;52491;45.900;6.346;2023-07-31T02:22:58;94051.13;;;27.68;35.35
65359;BME280;52491;45.900;6.346;2023-07-31T02:25:23;94046.28;;;27.71;35.50
65359;BME280;52491;45.900;6.346;2023-07-31T02:27:49;94041.19;;;27.69;35.37
65359;BME280;52491;45.900;6.346;2023-07-31T02:30:14;94039.31;;;27.70;35.33
65359;BME280;52491;45.900;6.346;2023-07-31T02:32:40;94039.06;;;27.71;35.20
65359;BME280;52491;45.900;6.346;2023-07-31T02:35:06;94038.53;;;27.69;35.24
65359;BME280;52491;45.900;6.346;2023-07-31T02:37:33;94039.84;;;27.72;35.45
65359;BME280;52491;45.900;6.346;2023-07-31T02:39:59;94042.00;;;27.70;35.31
65359;BME280;52491;45.900;6.346;2023-07-31T02:42:24;94034.25;;;27.68;35.45
65359;BME280;52491;45.900;6.346;2023-07-31T02:44:50;94036.94;;;27.68;35.19
65359;BME280;52491;45.900;6.346;2023-07-31T02:47:21;94035.84;;;27.69;35.26
65359;BME280;52491;45.900;6.346;2023-07-31T02:49:47;94031.28;;;27.70;35.28
65359;BME280;52491;45.900;6.346;2023-07-31T02:52:12;94027.00;;;27.68;35.11
65359;BME280;52491;45.900;6.346;2023-07-31T02:54:38;94027.28;;;27.67;35.38
65359;BME280;52491;45.900;6.346;2023-07-31T02:57:04;94031.84;;;27.66;35.23
65359;BME280;52491;45.900;6.346;2023-07-31T02:59:30;94034.53;;;27.66;35.14
65359;BME280;52491;45.900;6.346;2023-07-31T03:01:55;94046.31;;;27.65;35.21
65359;BME280;52491;45.900;6.346;2023-07-31T03:04:21;94041.75;;;27.66;35.34
65359;BME280;52491;45.900;6.346;2023-07-31T03:06:46;94027.84;;;27.64;35.03
65359;BME280;52491;45.900;6.346;2023-07-31T03:09:12;94025.16;;;27.64;35.08
65359;BME280;52491;45.900;6.346;2023-07-31T03:11:37;94034.03;;;27.64;35.12
65359;BME280;52491;45.900;6.346;2023-07-31T03:14:03;94042.31;;;27.63;35.02
65359;BME280;52491;45.900;6.346;2023-07-31T03:16:29;94036.97;;;27.63;34.98
65359;BME280;52491;45.900;6.346;2023-07-31T03:18:54;94047.69;;;27.63;35.13
65359;BME280;52491;45.900;6.346;2023-07-31T03:21:20;94050.34;;;27.63;35.09
65359;BME280;52491;45.900;6.346;2023-07-31T03:23:45;94056.81;;;27.62;35.04
65359;BME280;52491;45.900;6.346;2023-07-31T03:26:11;94049.56;;;27.62;34.90
65359;BME280;52491;45.900;6.346;2023-07-31T03:28:37;94045.28;;;27.61;34.97
65359;BME280;52491;45.900;6.346;2023-07-31T03:31:02;94047.69;;;27.63;34.95
65359;BME280;52491;45.900;6.346;2023-07-31T03:33:28;94043.41;;;27.62;34.97
65359;BME280;52491;45.900;6.346;2023-07-31T03:35:53;94042.59;;;27.61;34.88
65359;BME280;52491;45.900;6.346;2023-07-31T03:38:19;94047.16;;;27.61;34.66
65359;BME280;52491;45.900;6.346;2023-07-31T03:40:45;94048.25;;;27.60;35.13
65359;BME280;52491;45.900;6.346;2023-07-31T03:43:11;94055.19;;;27.61;34.99
65359;BME280;52491;45.900;6.346;2023-07-31T03:45:37;94057.38;;;27.59;35.02
65359;BME280;52491;45.900;6.346;2023-07-31T03:48:03;94058.66;;;27.61;34.87
65359;BME280;52491;45.900;6.346;2023-07-31T03:50:29;94054.41;;;27.60;35.24
65359;BME280;52491;45.900;6.346;2023-07-31T03:52:54;94059.75;;;27.60;34.94
65359;BME280;52491;45.900;6.346;2023-07-31T03:55:20;94055.47;;;27.59;35.03
65359;BME280;52491;45.900;6.346;2023-07-31T03:57:47;94052.81;;;27.59;34.93
65359;BME280;52491;45.900;6.346;2023-07-31T04:00:13;94057.38;;;27.59;34.89
65359;BME280;52491;45.900;6.346;2023-07-31T04:02:39;94057.38;;;27.59;34.80
65359;BME280;52491;45.900;6.346;2023-07-31T04:05:04;94054.16;;;27.57;34.79
65359;BME280;52491;45.900;6.346;2023-07-31T04:07:30;94053.38;;;27.56;34.83
65359;BME280;52491;45.900;6.346;2023-07-31T04:09:57;94053.38;;;27.56;34.71
65359;BME280;52491;45.900;6.346;2023-07-31T04:12:23;94058.72;;;27.56;34.76
65359;BME280;52491;45.900;6.346;2023-07-31T04:14:48;94059.78;;;27.55;34.83
65359;BME280;52491;45.900;6.346;2023-07-31T04:17:14;94065.94;;;27.56;34.84
65359;BME280;52491;45.900;6.346;2023-07-31T04:19:39;94062.47;;;27.55;34.77
65359;BME280;52491;45.900;6.346;2023-07-31T04:22:05;94061.66;;;27.55;34.71
65359;BME280;52491;45.900;6.346;2023-07-31T04:24:30;94070.78;;;27.54;35.05
65359;BME280;52491;45.900;6.346;2023-07-31T04:26:56;94069.69;;;27.55;34.71
65359;BME280;52491;45.900;6.346;2023-07-31T04:29:22;94071.59;;;27.54;34.64
65359;BME280;52491;45.900;6.346;2023-07-31T04:31:48;94079.63;;;27.54;34.98
65359;BME280;52491;45.900;6.346;2023-07-31T04:34:13;94081.50;;;27.54;34.84
65359;BME280;52491;45.900;6.346;2023-07-31T04:36:39;94079.31;;;27.56;34.71
65359;BME280;52491;45.900;6.346;2023-07-31T04:39:05;94073.16;;;27.55;34.56
65359;BME280;52491;45.900;6.346;2023-07-31T04:41:30;94074.78;;;27.56;34.56
65359;BME280;52491;45.900;6.346;2023-07-31T04:43:56;94083.88;;;27.55;34.61
65359;BME280;52491;45.900;6.346;2023-07-31T04:46:21;94081.19;;;27.55;34.74
65359;BME280;52491;45.900;6.346;2023-07-31T04:48:47;94071.59;;;27.54;34.74
65359;BME280;52491;45.900;6.346;2023-07-31T04:51:12;94071.28;;;27.56;34.58
65359;BME280;52491;45.900;6.346;2023-07-31T04:53:38;94067.81;;;27.55;35.01
65359;BME280;52491;45.900;6.346;2023-07-31T04:56:04;94069.69;;;27.55;34.41
65359;BME280;52491;45.900;6.346;2023-07-31T04:58:30;94065.44;;;27.54;34.61
65359;BME280;52491;45.900;6.346;2023-07-31T05:00:55;94066.22;;;27.54;34.57
65359;BME280;52491;45.900;6.346;2023-07-31T05:03:21;94076.13;;;27.54;34.62
65359;BME280;52491;45.900;6.346;2023-07-31T05:05:47;94084.44;;;27.52;34.48
65359;BME280;52491;45.900;6.346;2023-07-31T05:08:12;94085.22;;;27.53;34.50
65359;BME280;52491;45.900;6.346;2023-07-31T05:10:38;94083.66;;;27.52;34.58
65359;BME280;52491;45.900;6.346;2023-07-31T05:13:04;94072.94;;;27.52;34.61
65359;BME280;52491;45.900;6.346;2023-07-31T05:15:29;94076.41;;;27.52;34.53
65359;BME280;52491;45.900;6.346;2023-07-31T05:17:55;94074.53;;;27.53;34.58
65359;BME280;52491;45.900;6.346;2023-07-31T05:20:21;94081.75;;;27.52;34.64
65359;BME280;52491;45.900;6.346;2023-07-31T05:22:46;94077.50;;;27.51;34.40
65359;BME280;52491;45.900;6.346;2023-07-31T05:25:13;94068.66;;;27.51;34.52
65359;BME280;52491;45.900;6.346;2023-07-31T05:27:39;94060.63;;;27.51;34.70
65359;BME280;52491;45.900;6.346;2023-07-31T05:30:05;94070.25;;;27.52;34.48
65359;BME280;52491;45.900;6.346;2023-07-31T05:32:31;94067.56;;;27.52;34.26
65359;BME280;52491;45.900;6.346;2023-07-31T05:34:57;94076.41;;;27.52;34.58
65359;BME280;52491;45.900;6.346;2023-07-31T05:37:24;94071.84;;;27.53;34.62
65359;BME280;52491;45.900;6.346;2023-07-31T05:39:49;94083.66;;;27.52;34.30
65359;BME280;52491;45.900;6.346;2023-07-31T05:42:15;94078.28;;;27.52;34.37
65359;BME280;52491;45.900;6.346;2023-07-31T05:44:41;94084.72;;;27.51;34.50
65359;BME280;52491;45.900;6.346;2023-07-31T05:47:07;94080.44;;;27.50;34.43
65359;BME280;52491;45.900;6.346;2023-07-31T05:49:32;94075.06;;;27.50;34.54
65359;BME280;52491;45.900;6.346;2023-07-31T05:51:58;94070.53;;;27.50;34.47
65359;BME280;52491;45.900;6.346;2023-07-31T05:54:23;94059.81;;;27.50;34.05
65359;BME280;52491;45.900;6.346;2023-07-31T05:56:49;94066.25;;;27.49;34.43
65359;BME280;52491;45.900;6.346;2023-07-31T05:59:16;94062.47;;;27.50;34.41
65359;BME280;52491;45.900;6.346;2023-07-31T06:01:42;94056.34;;;27.50;34.56
65359;BME280;52491;45.900;6.346;2023-07-31T06:04:07;94051.28;;;27.48;34.32
65359;BME280;52491;45.900;6.346;2023-07-31T06:06:34;94059.00;;;27.50;34.58
65359;BME280;52491;45.900;6.346;2023-07-31T06:08:59;94065.16;;;27.50;34.46
65359;BME280;52491;45.900;6.346;2023-07-31T06:11:25;94060.91;;;27.49;34.37
65359;BME280;52491;45.900;6.346;2023-07-31T06:13:50;94058.22;;;27.49;34.33
65359;BME280;52491;45.900;6.346;2023-07-31T06:16:16;94064.38;;;27.50;34.48
65359;BME280;52491;45.900;6.346;2023-07-31T06:18:42;94053.94;;;27.48;34.47
65359;BME280;52491;45.900;6.346;2023-07-31T06:21:09;94052.88;;;27.49;34.38
65359;BME280;52491;45.900;6.346;2023-07-31T06:23:35;94050.97;;;27.50;34.45
65359;BME280;52491;45.900;6.346;2023-07-31T06:26:01;94044.03;;;27.49;34.29
65359;BME280;52491;45.900;6.346;2023-07-31T06:28:31;94040.28;;;27.50;34.37
65359;BME280;52491;45.900;6.346;2023-07-31T06:30:57;94040.56;;;27.48;34.29
65359;BME280;52491;45.900;6.346;2023-07-31T06:33:23;94026.09;;;27.49;34.37
65359;BME280;52491;45.900;6.346;2023-07-31T06:35:49;94027.16;;;27.48;34.42
65359;BME280;52491;45.900;6.346;2023-07-31T06:38:14;94018.84;;;27.50;34.42
65359;BME280;52491;45.900;6.346;2023-07-31T06:40:40;94014.56;;;27.49;34.30
65359;BME280;52491;45.900;6.346;2023-07-31T06:43:06;94003.88;;;27.49;34.42
65359;BME280;52491;45.900;6.346;2023-07-31T06:45:35;94003.88;;;27.49;34.63
65359;BME280;52491;45.900;6.346;2023-07-31T06:48:01;94005.75;;;27.48;34.46
65359;BME280;52491;45.900;6.346;2023-07-31T06:50:36;94005.47;;;27.50;34.46
65359;BME280;52491;45.900;6.346;2023-07-31T06:53:02;94000.41;;;27.48;34.52
65359;BME280;52491;45.900;6.346;2023-07-31T06:55:28;94001.19;;;27.49;34.52
65359;BME280;52491;45.900;6.346;2023-07-31T06:57:54;94005.47;;;27.50;34.57
65359;BME280;52491;45.900;6.346;2023-07-31T07:00:21;94004.78;;;27.34;34.81
65359;BME280;52491;45.900;6.346;2023-07-31T07:02:48;94004.81;;;27.29;35.09
65359;BME280;52491;45.900;6.346;2023-07-31T07:05:14;94001.34;;;27.28;34.91
65359;BME280;52491;45.900;6.346;2023-07-31T07:07:40;94002.41;;;27.27;35.03
65359;BME280;52491;45.900;6.346;2023-07-31T07:10:06;94009.91;;;27.25;35.16
65359;BME280;52491;45.900;6.346;2023-07-31T07:12:32;94007.22;;;27.25;35.14
65359;BME280;52491;45.900;6.346;2023-07-31T07:14:59;94001.88;;;27.25;35.10
65359;BME280;52491;45.900;6.346;2023-07-31T07:17:25;94002.94;;;27.24;35.21
65359;BME280;52491;45.900;6.346;2023-07-31T07:19:51;93997.06;;;27.22;34.99
65359;BME280;52491;45.900;6.346;2023-07-31T07:22:17;93992.28;;;27.14;35.21
65359;BME280;52491;45.900;6.346;2023-07-31T07:24:44;93990.38;;;27.19;35.28
65359;BME280;52491;45.900;6.346;2023-07-31T07:27:11;93991.47;;;27.23;35.14
65359;BME280;52491;45.900;6.346;2023-07-31T07:29:38;93997.59;;;27.24;35.23
65359;BME280;52491;45.900;6.346;2023-07-31T07:32:05;93990.38;;;27.25;35.28
65359;BME280;52491;45.900;6.346;2023-07-31T07:34:31;93986.91;;;27.24;35.22
65359;BME280;52491;45.900;6.346;2023-07-31T07:36:57;93986.09;;;27.23;34.85
65359;BME280;52491;45.900;6.346;2023-07-31T07:39:22;93978.06;;;27.23;35.21
65359;BME280;52491;45.900;6.346;2023-07-31T07:41:48;93982.63;;;27.23;35.26
65359;BME280;52491;45.900;6.346;2023-07-31T07:44:14;93989.56;;;27.24;35.22
65359;BME280;52491;45.900;6.346;2023-07-31T07:46:40;93986.91;;;27.24;35.29
65359;BME280;52491;45.900;6.346;2023-07-31T07:49:06;93984.50;;;27.22;35.61
65359;BME280;52491;45.900;6.346;2023-07-31T07:51:32;93977.28;;;27.23;35.43
65359;BME280;52491;45.900;6.346;2023-07-31T07:53:58;93971.13;;;27.22;35.37
65359;BME280;52491;45.900;6.346;2023-07-31T07:56:25;93967.63;;;27.22;35.56
65359;BME280;52491;45.900;6.346;2023-07-31T07:58:51;93973.28;;;27.20;35.50
65359;BME280;52491;45.900;6.346;2023-07-31T08:01:17;93967.63;;;27.22;35.40
65359;BME280;52491;45.900;6.346;2023-07-31T08:03:43;93964.69;;;27.23;35.63
65359;BME280;52491;45.900;6.346;2023-07-31T08:06:09;93957.19;;;27.26;35.33
65359;BME280;52491;45.900;6.346;2023-07-31T08:08:35;93966.00;;;27.26;35.63
65359;BME280;52491;45.900;6.346;2023-07-31T08:11:01;93965.72;;;27.28;35.64
65359;BME280;52491;45.900;6.346;2023-07-31T08:13:27;93970.00;;;27.29;35.74
65359;BME280;52491;45.900;6.346;2023-07-31T08:15:52;93959.31;;;27.29;35.58
65359;BME280;52491;45.900;6.346;2023-07-31T08:18:18;93958.50;;;27.28;35.67
65359;BME280;52491;45.900;6.346;2023-07-31T08:20:44;93955.84;;;27.28;35.98
65359;BME280;52491;45.900;6.346;2023-07-31T08:23:10;93945.63;;;27.30;35.95
65359;BME280;52491;45.900;6.346;2023-07-31T08:25:35;93948.81;;;27.32;35.61
65359;BME280;52491;45.900;6.346;2023-07-31T08:28:02;93946.41;;;27.31;35.74
65359;BME280;52491;45.900;6.346;2023-07-31T08:30:28;93938.13;;;27.32;35.97
65359;BME280;52491;45.900;6.346;2023-07-31T08:32:53;93935.44;;;27.32;36.04
65359;BME280;52491;45.900;6.346;2023-07-31T08:35:19;93937.31;;;27.32;35.40
65359;BME280;52491;45.900;6.346;2023-07-31T08:37:44;93929.84;;;27.29;35.03
65359;BME280;52491;45.900;6.346;2023-07-31T08:40:10;93934.13;;;27.30;35.26
65359;BME280;52491;45.900;6.346;2023-07-31T08:42:46;93938.13;;;27.32;35.30
65359;BME280;52491;45.900;6.346;2023-07-31T08:45:16;93932.25;;;27.30;35.25
65359;BME280;52491;45.900;6.346;2023-07-31T08:47:45;93933.84;;;27.31;35.21
65359;BME280;52491;45.900;6.346;2023-07-31T08:50:16;93930.34;;;27.31;35.52
65359;BME280;52491;45.900;6.346;2023-07-31T08:52:42;93930.34;;;27.31;35.47
65359;BME280;52491;45.900;6.346;2023-07-31T08:55:08;93923.16;;;27.31;35.64
65359;BME280;52491;45.900;6.346;2023-07-31T08:57:36;93922.06;;;27.32;35.58
65359;BME280;52491;45.900;6.346;2023-07-31T09:00:04;93925.53;;;27.33;35.49
65359;BME280;52491;45.900;6.346;2023-07-31T09:02:46;93925.25;;;27.34;35.46
65359;BME280;52491;45.900;6.346;2023-07-31T09:05:13;93918.28;;;27.33;35.52
65359;BME280;52491;45.900;6.346;2023-07-31T09:07:40;93917.50;;;27.33;35.68
65359;BME280;52491;45.900;6.346;2023-07-31T09:10:07;93914.25;;;27.36;35.45
65359;BME280;52491;45.900;6.346;2023-07-31T09:12:33;93914.25;;;27.36;35.33
65359;BME280;52491;45.900;6.346;2023-07-31T09:14:59;93907.06;;;27.36;35.49
65359;BME280;52491;45.900;6.346;2023-07-31T09:17:35;93905.97;;;27.37;35.63
65359;BME280;52491;45.900;6.346;2023-07-31T09:20:21;93902.97;;;27.39;35.56
65359;BME280;52491;45.900;6.346;2023-07-31T09:22:48;93899.81;;;27.37;35.55
65359;BME280;52491;45.900;6.346;2023-07-31T09:25:19;93902.50;;;27.37;35.89
65359;BME280;52491;45.900;6.346;2023-07-31T09:27:57;93907.06;;;27.36;35.62
65359;BME280;52491;45.900;6.346;2023-07-31T09:30:23;93895.50;;;27.36;35.51
65359;BME280;52491;45.900;6.346;2023-07-31T09:32:49;93903.53;;;27.36;35.56
65359;BME280;52491;45.900;6.346;2023-07-31T09:37:40;93893.66;;;27.36;35.94
65359;BME280;52491;45.900;6.346;2023-07-31T09:40:06;93887.47;;;27.36;35.67
65359;BME280;52491;45.900;6.346;2023-07-31T09:42:34;93892.56;;;27.37;35.92
65359;BME280;52491;45.900;6.346;2023-07-31T09:45:09;93886.13;;;27.38;35.60
65359;BME280;52491;45.900;6.346;2023-07-31T09:47:35;93883.75;;;27.37;35.73
65359;BME280;52491;45.900;6.346;2023-07-31T09:50:01;93880.78;;;27.38;35.67
65359;BME280;52491;45.900;6.346;2023-07-31T09:52:26;93869.28;;;27.38;35.75
65359;BME280;52491;45.900;6.346;2023-07-31T09:54:55;93864.72;;;27.38;36.00
65359;BME280;52491;45.900;6.346;2023-07-31T09:57:22;93845.69;;;27.40;35.61
65359;BME280;52491;45.900;6.346;2023-07-31T09:59:48;93848.38;;;27.40;35.72
65359;BME280;52491;45.900;6.346;2023-07-31T10:02:20;93850.25;;;27.39;35.85
65359;BME280;52491;45.900;6.346;2023-07-31T10:04:49;93841.94;;;27.41;35.99
65359;BME280;52491;45.900;6.346;2023-07-31T10:07:17;93832.00;;;27.41;35.90
65359;BME280;52491;45.900;6.346;2023-07-31T10:09:44;93833.63;;;27.42;35.91
65359;BME280;52491;45.900;6.346;2023-07-31T10:12:12;93822.13;;;27.42;35.77
65359;BME280;52491;45.900;6.346;2023-07-31T10:14:41;93815.94;;;27.41;35.79
65359;BME280;52491;45.900;6.346;2023-07-31T10:17:08;93817.03;;;27.40;35.89
65359;BME280;52491;45.900;6.346;2023-07-31T10:19:34;93816.25;;;27.40;35.93
65359;BME280;52491;45.900;6.346;2023-07-31T10:22:02;93812.47;;;27.41;36.14
65359;BME280;52491;45.900;6.346;2023-07-31T10:24:29;93810.59;;;27.41;35.90
65359;BME280;52491;45.900;6.346;2023-07-31T10:26:57;93815.16;;;27.41;35.94
65359;BME280;52491;45.900;6.346;2023-07-31T10:29:26;93809.00;;;27.40;35.76
65359;BME280;52491;45.900;6.346;2023-07-31T10:31:52;93811.69;;;27.40;35.92
65359;BME280;52491;45.900;6.346;2023-07-31T10:34:19;93813.28;;;27.41;35.99
65359;BME280;52491;45.900;6.346;2023-07-31T10:36:44;93810.59;;;27.41;35.98
65359;BME280;52491;45.900;6.346;2023-07-31T10:39:35;93802.00;;;27.44;35.85
65359;BME280;52491;45.900;6.346;2023-07-31T10:42:14;93792.38;;;27.43;35.88
65359;BME280;52491;45.900;6.346;2023-07-31T10:44:44;93794.25;;;27.43;35.96
65359;BME280;52491;45.900;6.346;2023-07-31T10:47:14;93785.94;;;27.44;35.81
65359;BME280;52491;45.900;6.346;2023-07-31T10:49:40;93787.03;;;27.43;35.87
65359;BME280;52491;45.900;6.346;2023-07-31T10:52:10;93784.88;;;27.45;35.90
65359;BME280;52491;45.900;6.346;2023-07-31T10:54:38;93783.56;;;27.43;35.95
65359;BME280;52491;45.900;6.346;2023-07-31T10:57:21;93774.94;;;27.46;35.89
65359;BME280;52491;45.900;6.346;2023-07-31T10:59:48;93779.78;;;27.44;35.90
65359;BME280;52491;45.900;6.346;2023-07-31T11:02:26;93776.84;;;27.45;35.84
65359;BME280;52491;45.900;6.346;2023-07-31T11:05:08;93782.19;;;27.45;36.08
65359;BME280;52491;45.900;6.346;2023-07-31T11:07:50;93776.03;;;27.45;36.12
65359;BME280;52491;45.900;6.346;2023-07-31T11:10:17;93777.41;;;27.42;35.76
65359;BME280;52491;45.900;6.346;2023-07-31T11:12:42;93773.63;;;27.43;35.87
65359;BME280;52491;45.900;6.346;2023-07-31T11:15:08;93770.16;;;27.14;36.53
65359;BME280;52491;45.900;6.346;2023-07-31T11:17:39;93767.53;;;27.09;36.57
65359;BME280;52491;45.900;6.346;2023-07-31T11:20:05;93769.41;;;27.08;36.80
65359;BME280;52491;45.900;6.346;2023-07-31T11:22:31;93767.81;;;27.07;36.64
65359;BME280;52491;45.900;6.346;2023-07-31T11:24:57;93763.25;;;27.08;36.74
65359;BME280;52491;45.900;6.346;2023-07-31T11:27:27;93764.56;;;27.10;36.74
65359;BME280;52491;45.900;6.346;2023-07-31T11:30:00;93762.69;;;27.11;36.69
65359;BME280;52491;45.900;6.346;2023-07-31T11:32:26;93750.13;;;27.11;36.84
65359;BME280;52491;45.900;6.346;2023-07-31T11:34:53;93751.72;;;27.12;36.79
65359;BME280;52491;45.900;6.346;2023-07-31T11:37:18;93759.75;;;27.12;36.88
65359;BME280;52491;45.900;6.346;2023-07-31T11:40:01;93747.16;;;27.13;36.75
65359;BME280;52491;45.900;6.346;2023-07-31T11:42:27;93746.63;;;27.11;37.02
65359;BME280;52491;45.900;6.346;2023-07-31T11:44:52;93743.16;;;27.10;36.80
65359;BME280;52491;45.900;6.346;2023-07-31T11:47:20;93735.44;;;27.09;36.99
65359;BME280;52491;45.900;6.346;2023-07-31T11:49:46;93739.69;;;27.10;37.25
65359;BME280;52491;45.900;6.346;2023-07-31T11:52:14;93746.13;;;27.09;37.18
65359;BME280;52491;45.900;6.346;2023-07-31T11:54:42;93752.53;;;27.08;37.37
65359;BME280;52491;45.900;6.346;2023-07-31T11:57:09;93748.81;;;27.09;37.25
65359;BME280;52491;45.900;6.346;2023-07-31T11:59:37;93745.31;;;27.08;37.58
65359;BME280;52491;45.900;6.346;2023-07-31T12:02:04;93743.88;;;26.92;37.54
65359;BME280;52491;45.900;6.346;2023-07-31T12:04:31;93745.31;;;27.08;37.31
65359;BME280;52491;45.900;6.346;2023-07-31T12:07:00;93745.84;;;27.10;37.33
65359;BME280;52491;45.900;6.346;2023-07-31T12:09:27;93742.09;;;27.11;37.46
65359;BME280;52491;45.900;6.346;2023-07-31T12:11:54;93725.22;;;27.11;37.13
65359;BME280;52491;45.900;6.346;2023-07-31T12:14:24;93726.03;;;27.11;37.42
65359;BME280;52491;45.900;6.346;2023-07-31T12:17:09;93724.34;;;27.44;36.88
65359;BME280;52491;45.900;6.346;2023-07-31T12:19:36;93718.44;;;27.48;36.66
65359;BME280;52491;45.900;6.346;2023-07-31T12:22:12;93719.72;;;27.50;36.75
65359;BME280;52491;45.900;6.346;2023-07-31T12:24:39;93722.41;;;27.50;36.60
65359;BME280;52491;45.900;6.346;2023-07-31T12:27:15;93710.13;;;27.49;36.60
65359;BME280;52491;45.900;6.346;2023-07-31T12:29:44;93713.59;;;27.50;37.16
65359;BME280;52491;45.900;6.346;2023-07-31T12:32:21;93713.31;;;27.51;36.55
65359;BME280;52491;45.900;6.346;2023-07-31T12:34:47;93715.47;;;27.49;36.62
65359;BME280;52491;45.900;6.346;2023-07-31T12:37:12;93703.66;;;27.50;36.75
65359;BME280;52491;45.900;6.346;2023-07-31T12:39:38;93707.97;;;27.51;36.80
65359;BME280;52491;45.900;6.346;2023-07-31T12:42:04;93700.72;;;27.52;37.08
65359;BME280;52491;45.900;6.346;2023-07-31T12:44:29;93695.88;;;27.54;37.21
65359;BME280;52491;45.900;6.346;2023-07-31T12:46:55;93697.75;;;27.53;37.10
65359;BME280;52491;45.900;6.346;2023-07-31T12:49:20;93687.84;;;27.54;36.88
65359;BME280;52491;45.900;6.346;2023-07-31T12:51:46;93676.03;;;27.55;37.13
65359;BME280;52491;45.900;6.346;2023-07-31T12:54:12;93673.09;;;27.56;37.22
65359;BME280;52491;45.900;6.346;2023-07-31T12:56:37;93670.41;;;27.56;37.34
65359;BME280;52491;45.900;6.346;2023-07-31T12:59:03;93672.78;;;27.58;37.03
65359;BME280;52491;45.900;6.346;2023-07-31T13:01:28;93662.06;;;27.58;37.35
65359;BME280;52491;45.900;6.346;2023-07-31T13:03:54;93666.38;;;27.59;37.06
65359;BME280;52491;45.900;6.346;2023-07-31T13:06:20;93650.00;;;27.60;37.40
65359;BME280;52491;45.900;6.346;2023-07-31T13:08:45;93646.00;;;27.58;37.39